sensor_id;sensor_type;location;lat;lon;timestamp;P1;durP1;ratioP1;P2;durP2;ratioP2
10230;SDS011;62604;49.432;8.680;2023-07-02T16:30:46;16.08;;;9.70;;
10230;SDS011;62604;49.432;8.680;2023-07-02T16:36:33;16.20;;;10.48;;
10230;SDS011;62604;49.432;8.680;2023-07-02T16:39:04;14.77;;;10.02;;
10230;SDS011;62604;49.432;8.680;2023-07-02T16:41:35;14.95;;;9.55;;
10230;SDS011;62604;49.432;8.680;2023-07-02T16:44:14;14.68;;;9.48;;
10230;SDS011;62604;49.432;8.680;2023-07-02T16:47:23;13.82;;;9.35;;
10230;SDS011;62604;49.432;8.680;2023-07-02T16:50:13;14.00;;;9.48;;
10230;SDS011;62604;49.432;8.680;2023-07-02T16:55:38;14.80;;;9.10;;
10230;SDS011;62604;49.432;8.680;2023-07-02T16:58:08;14.65;;;9.38;;
10230;SDS011;62604;49.432;8.680;2023-07-02T17:03:50;13.35;;;8.75;;
10230;SDS011;62604;49.432;8.680;2023-07-02T17:06:18;15.50;;;9.48;;
10230;SDS011;62604;49.432;8.680;2023-07-02T17:08:48;17.30;;;9.80;;
10230;SDS011;62604;49.432;8.680;2023-07-02T17:11:57;20.27;;;9.55;;
10230;SDS011;62604;49.432;8.680;2023-07-02T17:17:17;14.90;;;8.90;;
10230;SDS011;62604;49.432;8.680;2023-07-02T17:23:22;16.63;;;9.75;;
10230;SDS011;62604;49.432;8.680;2023-07-02T17:32:46;14.88;;;9.35;;
10230;SDS011;62604;49.432;8.680;2023-07-02T17:35:24;12.90;;;9.40;;
10230;SDS011;62604;49.432;8.680;2023-07-02T17:41:06;15.70;;;9.18;;
10230;SDS011;62604;49.432;8.680;2023-07-02T17:54:06;12.95;;;8.85;;
10230;SDS011;62604;49.432;8.680;2023-07-02T17:56:33;15.60;;;9.10;;
10230;SDS011;62604;49.432;8.680;2023-07-02T17:59:02;12.77;;;8.68;;
10230;SDS011;62604;49.432;8.680;2023-07-02T18:01:50;14.55;;;9.40;;
10230;SDS011;62604;49.432;8.680;2023-07-02T18:07:07;16.33;;;9.10;;
10230;SDS011;62604;49.432;8.680;2023-07-02T18:09:47;19.90;;;9.73;;
10230;SDS011;62604;49.432;8.680;2023-07-02T18:12:30;12.48;;;8.95;;
10230;SDS011;62604;49.432;8.680;2023-07-02T18:15:07;12.95;;;8.85;;
10230;SDS011;62604;49.432;8.680;2023-07-02T18:26:47;14.10;;;8.93;;
10230;SDS011;62604;49.432;8.680;2023-07-02T18:29:19;17.30;;;8.88;;
10230;SDS011;62604;49.432;8.680;2023-07-02T18:32:08;15.02;;;8.80;;
10230;SDS011;62604;49.432;8.680;2023-07-02T18:37:30;14.45;;;8.77;;
10230;SDS011;62604;49.432;8.680;2023-07-02T18:40:00;15.18;;;8.45;;
10230;SDS011;62604;49.432;8.680;2023-07-02T18:48:52;13.80;;;8.48;;
10230;SDS011;62604;49.432;8.680;2023-07-02T18:51:19;14.70;;;8.63;;
10230;SDS011;62604;49.432;8.680;2023-07-02T18:53:49;14.73;;;9.23;;
10230;SDS011;62604;49.432;8.680;2023-07-02T18:56:16;10.85;;;7.78;;
10230;SDS011;62604;49.432;8.680;2023-07-02T18:58:59;12.32;;;8.60;;
10230;SDS011;62604;49.432;8.680;2023-07-02T19:01:41;13.88;;;9.02;;
10230;SDS011;62604;49.432;8.680;2023-07-02T19:04:08;19.45;;;8.80;;
10230;SDS011;62604;49.432;8.680;2023-07-02T19:06:39;12.63;;;8.60;;
10230;SDS011;62604;49.432;8.680;2023-07-02T19:09:26;11.73;;;8.55;;
10230;SDS011;62604;49.432;8.680;2023-07-02T19:12:08;12.23;;;7.90;;
10230;SDS011;62604;49.432;8.680;2023-07-02T19:14:37;13.07;;;7.80;;
10230;SDS011;62604;49.432;8.680;2023-07-02T19:17:07;13.45;;;8.20;;
10230;SDS011;62604;49.432;8.680;2023-07-02T19:19:51;11.98;;;8.23;;
10230;SDS011;62604;49.432;8.680;2023-07-02T19:22:18;13.27;;;8.35;;
10230;SDS011;62604;49.432;8.680;2023-07-02T19:25:01;15.48;;;7.70;;
10230;SDS011;62604;49.432;8.680;2023-07-02T19:30:48;10.52;;;7.68;;
10230;SDS011;62604;49.432;8.680;2023-07-02T19:33:22;17.10;;;7.78;;
10230;SDS011;62604;49.432;8.680;2023-07-02T19:46:03;10.70;;;7.20;;
10230;SDS011;62604;49.432;8.680;2023-07-02T19:48:47;10.35;;;7.25;;
10230;SDS011;62604;49.432;8.680;2023-07-02T19:51:15;12.32;;;7.55;;
10230;SDS011;62604;49.432;8.680;2023-07-02T19:53:51;12.23;;;7.63;;
10230;SDS011;62604;49.432;8.680;2023-07-02T19:56:19;14.77;;;7.70;;
10230;SDS011;62604;49.432;8.680;2023-07-02T19:58:58;12.38;;;7.07;;
10230;SDS011;62604;49.432;8.680;2023-07-02T20:01:29;13.02;;;8.15;;
10230;SDS011;62604;49.432;8.680;2023-07-02T20:04:13;11.52;;;7.22;;
10230;SDS011;62604;49.432;8.680;2023-07-02T20:07:32;13.45;;;7.97;;
10230;SDS011;62604;49.432;8.680;2023-07-02T20:16:09;11.60;;;7.35;;
10230;SDS011;62604;49.432;8.680;2023-07-02T20:18:50;15.38;;;8.07;;
10230;SDS011;62604;49.432;8.680;2023-07-02T20:21:20;12.55;;;7.28;;
10230;SDS011;62604;49.432;8.680;2023-07-02T20:24:03;11.60;;;6.93;;
10230;SDS011;62604;49.432;8.680;2023-07-02T20:26:33;13.82;;;7.45;;
10230;SDS011;62604;49.432;8.680;2023-07-02T20:29:06;12.15;;;7.45;;
10230;SDS011;62604;49.432;8.680;2023-07-02T20:31:51;12.75;;;7.35;;
10230;SDS011;62604;49.432;8.680;2023-07-02T20:34:20;15.18;;;7.90;;
10230;SDS011;62604;49.432;8.680;2023-07-02T20:37:11;10.48;;;7.25;;
10230;SDS011;62604;49.432;8.680;2023-07-02T20:42:35;9.68;;;6.60;;
10230;SDS011;62604;49.432;8.680;2023-07-02T20:45:05;12.82;;;6.97;;
10230;SDS011;62604;49.432;8.680;2023-07-02T20:48:14;14.07;;;7.32;;
10230;SDS011;62604;49.432;8.680;2023-07-02T20:50:41;10.13;;;6.90;;
10230;SDS011;62604;49.432;8.680;2023-07-02T20:53:10;13.98;;;7.50;;
10230;SDS011;62604;49.432;8.680;2023-07-02T20:55:41;13.05;;;8.30;;
10230;SDS011;62604;49.432;8.680;2023-07-02T20:58:23;13.25;;;7.75;;
10230;SDS011;62604;49.432;8.680;2023-07-02T21:03:37;11.07;;;6.78;;
10230;SDS011;62604;49.432;8.680;2023-07-02T21:06:09;11.60;;;7.07;;
10230;SDS011;62604;49.432;8.680;2023-07-02T21:09:11;11.07;;;6.80;;
10230;SDS011;62604;49.432;8.680;2023-07-02T21:11:39;9.80;;;6.57;;
10230;SDS011;62604;49.432;8.680;2023-07-02T21:14:06;11.85;;;7.32;;
10230;SDS011;62604;49.432;8.680;2023-07-02T21:16:34;14.43;;;7.68;;
10230;SDS011;62604;49.432;8.680;2023-07-02T21:19:01;12.82;;;7.30;;
10230;SDS011;62604;49.432;8.680;2023-07-02T21:21:29;14.23;;;7.35;;
10230;SDS011;62604;49.432;8.680;2023-07-02T21:23:55;12.57;;;6.97;;
10230;SDS011;62604;49.432;8.680;2023-07-02T21:26:24;11.75;;;7.20;;
10230;SDS011;62604;49.432;8.680;2023-07-02T21:28:51;11.55;;;7.00;;
10230;SDS011;62604;49.432;8.680;2023-07-02T21:31:18;12.85;;;7.93;;
10230;SDS011;62604;49.432;8.680;2023-07-02T21:33:44;12.90;;;7.60;;
10230;SDS011;62604;49.432;8.680;2023-07-02T21:36:11;13.80;;;7.43;;
10230;SDS011;62604;49.432;8.680;2023-07-02T21:38:40;11.32;;;7.20;;
10230;SDS011;62604;49.432;8.680;2023-07-02T21:41:09;13.77;;;7.40;;
10230;SDS011;62604;49.432;8.680;2023-07-02T21:43:38;11.82;;;7.78;;
10230;SDS011;62604;49.432;8.680;2023-07-02T21:46:06;12.20;;;6.97;;
10230;SDS011;62604;49.432;8.680;2023-07-02T21:48:34;10.35;;;6.60;;
10230;SDS011;62604;49.432;8.680;2023-07-02T21:51:01;10.63;;;7.15;;
10230;SDS011;62604;49.432;8.680;2023-07-02T21:53:28;12.13;;;6.43;;
10230;SDS011;62604;49.432;8.680;2023-07-02T21:55:55;9.88;;;7.03;;
10230;SDS011;62604;49.432;8.680;2023-07-02T21:58:23;14.05;;;6.88;;
10230;SDS011;62604;49.432;8.680;2023-07-02T22:00:51;14.65;;;7.90;;
10230;SDS011;62604;49.432;8.680;2023-07-02T22:03:18;11.70;;;7.20;;
10230;SDS011;62604;49.432;8.680;2023-07-02T22:05:49;10.82;;;7.13;;
10230;SDS011;62604;49.432;8.680;2023-07-02T22:08:17;9.88;;;6.40;;
10230;SDS011;62604;49.432;8.680;2023-07-02T22:10:43;10.70;;;7.47;;
10230;SDS011;62604;49.432;8.680;2023-07-02T22:13:11;13.75;;;7.53;;
10230;SDS011;62604;49.432;8.680;2023-07-02T22:15:37;11.20;;;6.93;;
10230;SDS011;62604;49.432;8.680;2023-07-02T22:18:06;10.57;;;7.05;;
10230;SDS011;62604;49.432;8.680;2023-07-02T22:20:34;10.95;;;7.28;;
10230;SDS011;62604;49.432;8.680;2023-07-02T22:23:02;14.98;;;7.10;;
10230;SDS011;62604;49.432;8.680;2023-07-02T22:25:30;12.57;;;7.75;;
10230;SDS011;62604;49.432;8.680;2023-07-02T22:27:57;13.93;;;7.57;;
10230;SDS011;62604;49.432;8.680;2023-07-02T22:30:24;15.05;;;6.85;;
10230;SDS011;62604;49.432;8.680;2023-07-02T22:32:51;12.10;;;7.22;;
10230;SDS011;62604;49.432;8.680;2023-07-02T22:35:20;16.75;;;7.55;;
10230;SDS011;62604;49.432;8.680;2023-07-02T22:37:47;10.10;;;7.20;;
10230;SDS011;62604;49.432;8.680;2023-07-02T22:40:14;15.75;;;6.90;;
10230;SDS011;62604;49.432;8.680;2023-07-02T22:42:42;14.32;;;7.97;;
10230;SDS011;62604;49.432;8.680;2023-07-02T22:45:11;11.75;;;7.35;;
10230;SDS011;62604;49.432;8.680;2023-07-02T22:47:39;13.70;;;7.22;;
10230;SDS011;62604;49.432;8.680;2023-07-02T22:50:07;13.63;;;6.97;;
10230;SDS011;62604;49.432;8.680;2023-07-02T22:52:37;9.05;;;6.25;;
10230;SDS011;62604;49.432;8.680;2023-07-02T22:55:05;12.88;;;7.05;;
10230;SDS011;62604;49.432;8.680;2023-07-02T22:57:33;9.32;;;6.72;;
10230;SDS011;62604;49.432;8.680;2023-07-02T23:00:01;10.80;;;6.93;;
10230;SDS011;62604;49.432;8.680;2023-07-02T23:02:35;14.30;;;7.20;;
10230;SDS011;62604;49.432;8.680;2023-07-02T23:05:02;13.75;;;7.50;;
10230;SDS011;62604;49.432;8.680;2023-07-02T23:07:29;13.70;;;7.53;;
10230;SDS011;62604;49.432;8.680;2023-07-02T23:09:57;15.77;;;7.53;;
10230;SDS011;62604;49.432;8.680;2023-07-02T23:12:25;10.80;;;6.65;;
10230;SDS011;62604;49.432;8.680;2023-07-02T23:14:51;11.13;;;7.03;;
10230;SDS011;62604;49.432;8.680;2023-07-02T23:17:18;10.70;;;6.53;;
10230;SDS011;62604;49.432;8.680;2023-07-02T23:19:48;13.45;;;7.72;;
10230;SDS011;62604;49.432;8.680;2023-07-02T23:22:16;11.35;;;6.55;;
10230;SDS011;62604;49.432;8.680;2023-07-02T23:24:44;12.32;;;7.13;;
10230;SDS011;62604;49.432;8.680;2023-07-02T23:27:13;12.25;;;7.30;;
10230;SDS011;62604;49.432;8.680;2023-07-02T23:29:39;13.88;;;7.63;;
10230;SDS011;62604;49.432;8.680;2023-07-02T23:32:09;11.88;;;6.82;;
10230;SDS011;62604;49.432;8.680;2023-07-02T23:34:36;10.75;;;6.97;;
10230;SDS011;62604;49.432;8.680;2023-07-02T23:37:04;17.17;;;7.38;;
10230;SDS011;62604;49.432;8.680;2023-07-02T23:39:35;13.77;;;6.93;;
10230;SDS011;62604;49.432;8.680;2023-07-02T23:42:02;13.10;;;7.50;;
10230;SDS011;62604;49.432;8.680;2023-07-02T23:44:31;11.40;;;7.43;;
10230;SDS011;62604;49.432;8.680;2023-07-02T23:46:58;12.80;;;7.30;;
10230;SDS011;62604;49.432;8.680;2023-07-02T23:49:25;13.48;;;8.05;;
10230;SDS011;62604;49.432;8.680;2023-07-02T23:51:53;11.85;;;8.20;;
10230;SDS011;62604;49.432;8.680;2023-07-02T23:54:24;10.85;;;7.97;;
10230;SDS011;62604;49.432;8.680;2023-07-02T23:56:51;10.45;;;7.82;;
10230;SDS011;62604;49.432;8.680;2023-07-02T23:59:18;11.10;;;8.05;;
